createdAt,value
2016-07-24T00:00:36.680Z,0
2016-07-24T00:01:36.705Z,0
2016-07-24T00:02:36.730Z,0
2016-07-24T00:03:37.454Z,0
2016-07-24T00:04:36.783Z,0
2016-07-24T00:05:36.818Z,0
2016-07-24T00:06:36.842Z,0
2016-07-24T00:07:36.878Z,0
2016-07-24T00:08:36.888Z,0
2016-07-24T00:09:51.844Z,0
2016-07-24T00:10:51.875Z,0
2016-07-24T00:11:36.975Z,0
2016-07-24T00:12:37.019Z,0
2016-07-24T00:13:37.044Z,0
2016-07-24T00:14:51.977Z,0
2016-07-24T00:15:37.790Z,0
2016-07-24T00:16:37.116Z,0
2016-07-24T00:17:37.145Z,0
2016-07-24T00:18:37.167Z,0
2016-07-24T00:20:52.146Z,0
2016-07-24T00:21:37.247Z,0
2016-07-24T00:22:52.200Z,0
2016-07-24T00:23:52.231Z,0
2016-07-24T00:24:37.346Z,0
2016-07-24T00:25:37.368Z,0
2016-07-24T00:26:52.305Z,0
2016-07-24T00:27:37.438Z,0
2016-07-24T00:29:37.481Z,0
2016-07-24T00:30:52.421Z,0
2016-07-24T00:31:52.452Z,0
2016-07-24T00:32:37.545Z,0
2016-07-24T00:33:37.581Z,0
2016-07-24T00:34:37.604Z,0
2016-07-24T00:35:53.252Z,0
2016-07-24T00:36:37.659Z,0
2016-07-24T00:37:37.691Z,0
2016-07-24T00:38:37.716Z,0
2016-07-24T00:39:37.743Z,0
2016-07-24T00:40:52.701Z,0
2016-07-24T00:41:52.715Z,0
2016-07-24T00:42:52.749Z,0
2016-07-24T00:43:37.862Z,0
2016-07-24T00:44:52.802Z,0
2016-07-24T00:45:37.902Z,0
2016-07-24T00:46:52.852Z,0
2016-07-24T00:47:37.970Z,0
2016-07-24T00:48:37.986Z,0
2016-07-24T00:49:38.015Z,0
2016-07-24T00:50:38.091Z,0
2016-07-24T00:51:38.076Z,0
2016-07-24T00:52:38.106Z,0
2016-07-24T00:53:38.126Z,0
2016-07-24T00:54:38.163Z,0
2016-07-24T00:55:38.189Z,0
2016-07-24T00:56:38.208Z,0
2016-07-24T00:57:38.241Z,0
2016-07-24T00:58:38.283Z,0
2016-07-24T00:59:38.286Z,0
2016-07-24T01:00:53.236Z,0
2016-07-24T01:01:38.338Z,0
2016-07-24T01:02:53.308Z,0
2016-07-24T01:04:08.247Z,0
2016-07-24T01:04:38.427Z,0
2016-07-24T01:05:38.459Z,0
2016-07-24T01:06:38.484Z,0
2016-07-24T01:07:53.433Z,0
2016-07-24T01:08:38.544Z,0
2016-07-24T01:09:39.282Z,0
2016-07-24T01:10:38.588Z,0
2016-07-24T01:11:38.621Z,0
2016-07-24T01:12:38.639Z,0
2016-07-24T01:13:38.669Z,0
2016-07-24T01:14:38.701Z,0
2016-07-24T01:15:38.732Z,0
2016-07-24T01:16:53.670Z,0
2016-07-24T01:17:38.779Z,0
2016-07-24T01:18:53.720Z,0
2016-07-24T01:19:38.842Z,0
2016-07-24T01:20:38.858Z,0
2016-07-24T01:21:38.940Z,0
2016-07-24T01:22:38.909Z,0
2016-07-24T01:23:39.643Z,0
2016-07-24T01:24:39.019Z,0
2016-07-24T01:26:39.019Z,0
2016-07-24T01:27:39.045Z,0
2016-07-24T01:28:39.069Z,0
2016-07-24T01:29:54.034Z,0
2016-07-24T01:30:39.132Z,0
2016-07-24T01:31:39.158Z,0
2016-07-24T01:32:39.185Z,0
2016-07-24T01:33:54.147Z,0
2016-07-24T01:34:39.244Z,0
2016-07-24T01:35:39.266Z,0
2016-07-24T01:36:39.299Z,0
2016-07-24T01:37:39.325Z,0
2016-07-24T01:38:39.351Z,0
2016-07-24T01:39:39.377Z,0
2016-07-24T01:40:39.408Z,0
2016-07-24T01:41:54.366Z,0
2016-07-24T01:42:39.465Z,0
2016-07-24T01:43:54.416Z,0
2016-07-24T01:44:39.526Z,0
2016-07-24T01:45:54.467Z,0
2016-07-24T01:46:54.494Z,0
2016-07-24T01:47:39.595Z,0
2016-07-24T01:48:54.553Z,0
2016-07-24T01:49:54.574Z,0
2016-07-24T01:50:54.596Z,0
2016-07-24T01:51:40.413Z,0
2016-07-24T01:52:39.738Z,0
2016-07-24T01:53:39.760Z,0
2016-07-24T01:54:39.778Z,0
2016-07-24T01:56:54.766Z,0
2016-07-24T01:57:39.877Z,0
2016-07-24T01:58:39.883Z,0
2016-07-24T01:59:54.848Z,0
2016-07-24T02:00:39.950Z,0
2016-07-24T02:01:39.978Z,0
2016-07-24T02:02:40.018Z,0
2016-07-24T02:03:40.041Z,0
2016-07-24T02:04:40.066Z,0
2016-07-24T02:05:55.010Z,0
2016-07-24T02:06:40.118Z,0
2016-07-24T02:07:40.140Z,0
2016-07-24T02:08:40.169Z,0
2016-07-24T02:09:40.194Z,0
2016-07-24T02:10:40.217Z,0
2016-07-24T02:11:40.945Z,0
2016-07-24T02:12:40.275Z,0
2016-07-24T02:13:40.295Z,0
2016-07-24T02:15:40.358Z,0
2016-07-24T02:16:40.395Z,0
2016-07-24T02:17:40.417Z,0
2016-07-24T02:18:40.451Z,0
2016-07-24T02:19:40.453Z,0
2016-07-24T02:20:40.488Z,0
2016-07-24T02:21:55.443Z,0
2016-07-24T02:22:40.546Z,0
2016-07-24T02:23:40.573Z,0
2016-07-24T02:24:55.527Z,0
2016-07-24T02:25:40.628Z,0
2016-07-24T02:26:55.582Z,0
2016-07-24T02:27:40.676Z,0
2016-07-24T02:28:40.721Z,0
2016-07-24T02:29:40.731Z,0
2016-07-24T02:30:40.764Z,0
2016-07-24T02:31:40.790Z,0
2016-07-24T02:32:40.821Z,0
2016-07-24T02:33:55.771Z,0
2016-07-24T02:34:40.865Z,0
2016-07-24T02:35:40.903Z,0
2016-07-24T02:36:40.931Z,0
2016-07-24T02:37:55.881Z,0
2016-07-24T02:38:40.982Z,0
2016-07-24T02:39:41.026Z,0
2016-07-24T02:40:41.021Z,0
2016-07-24T02:41:41.056Z,0
2016-07-24T02:42:41.086Z,0
2016-07-24T02:44:41.143Z,0
2016-07-24T02:45:41.170Z,0
2016-07-24T02:46:41.201Z,0
2016-07-24T02:47:56.155Z,0
2016-07-24T02:48:41.259Z,0
2016-07-24T02:49:41.277Z,0
2016-07-24T02:51:11.158Z,0
2016-07-24T02:51:56.264Z,0
2016-07-24T02:52:41.366Z,0
2016-07-24T02:53:56.309Z,0
2016-07-24T02:54:41.411Z,0
2016-07-24T02:55:41.432Z,0
2016-07-24T02:56:41.463Z,0
2016-07-24T02:57:41.488Z,0
2016-07-24T02:58:56.445Z,0
2016-07-24T02:59:41.532Z,0
2016-07-24T03:00:41.566Z,0
2016-07-24T03:01:41.600Z,0
2016-07-24T03:02:41.621Z,0
2016-07-24T03:04:41.693Z,0
2016-07-24T03:05:56.634Z,0
2016-07-24T03:06:41.739Z,0
2016-07-24T03:07:41.770Z,0
2016-07-24T03:08:56.710Z,0
2016-07-24T03:09:41.819Z,0
2016-07-24T03:10:41.847Z,0
2016-07-24T03:11:41.875Z,0
2016-07-24T03:12:41.895Z,0
2016-07-24T03:13:41.929Z,0
2016-07-24T03:14:41.955Z,0
2016-07-24T03:15:41.983Z,0
2016-07-24T03:16:56.936Z,0
2016-07-24T03:17:42.027Z,0
2016-07-24T03:18:42.063Z,0
2016-07-24T03:19:42.092Z,5
2016-07-24T03:20:42.113Z,5
2016-07-24T03:21:57.067Z,5
2016-07-24T03:22:42.175Z,5
2016-07-24T03:23:42.199Z,5
2016-07-24T03:24:57.145Z,5
2016-07-24T03:25:42.241Z,5
2016-07-24T03:26:42.268Z,5
2016-07-24T03:27:42.295Z,5
2016-07-24T03:28:42.380Z,5
2016-07-24T03:29:42.354Z,5
2016-07-24T03:30:43.098Z,5
2016-07-24T03:31:42.407Z,5
2016-07-24T03:32:42.450Z,5
2016-07-24T03:33:42.459Z,5
2016-07-24T03:34:57.428Z,10
2016-07-24T03:35:42.525Z,10
2016-07-24T03:37:42.574Z,10
2016-07-24T03:38:42.598Z,10
2016-07-24T03:39:42.632Z,10
2016-07-24T03:40:57.567Z,5
2016-07-24T03:41:43.386Z,5
2016-07-24T03:42:42.704Z,5
2016-07-24T03:43:42.732Z,10
2016-07-24T03:44:42.756Z,10
2016-07-24T03:45:42.789Z,10
2016-07-24T03:46:42.818Z,10
2016-07-24T03:47:42.834Z,10
2016-07-24T03:48:42.872Z,10
2016-07-24T03:49:42.890Z,10
2016-07-24T03:50:42.919Z,10
2016-07-24T03:51:42.956Z,10
2016-07-24T03:52:42.965Z,10
2016-07-24T03:53:43.002Z,10
2016-07-24T03:54:57.952Z,10
2016-07-24T03:56:12.903Z,10
2016-07-24T03:56:58.000Z,10
2016-07-24T03:57:43.113Z,10
2016-07-24T03:58:43.132Z,10
2016-07-24T03:59:43.184Z,10
2016-07-24T04:00:43.186Z,15
2016-07-24T04:01:43.230Z,15
2016-07-24T04:02:58.168Z,15
2016-07-24T04:03:43.273Z,15
2016-07-24T04:04:43.301Z,15
2016-07-24T04:05:43.321Z,20
2016-07-24T04:06:43.351Z,20
2016-07-24T04:07:43.373Z,25
2016-07-24T04:08:43.399Z,25
2016-07-24T04:09:43.434Z,30
2016-07-24T04:10:43.459Z,30
2016-07-24T04:11:43.491Z,35
2016-07-24T04:12:58.435Z,35
2016-07-24T04:13:43.535Z,40
2016-07-24T04:14:43.568Z,40
2016-07-24T04:15:43.593Z,45
2016-07-24T04:16:43.624Z,45
2016-07-24T04:17:43.639Z,45
2016-07-24T04:18:43.675Z,45
2016-07-24T04:19:43.697Z,50
2016-07-24T04:21:43.749Z,50
2016-07-24T04:22:58.710Z,50
2016-07-24T04:23:43.800Z,55
2016-07-24T04:24:43.840Z,55
2016-07-24T04:26:43.896Z,55
2016-07-24T04:27:58.841Z,55
2016-07-24T04:28:58.919Z,50
2016-07-24T04:29:43.973Z,50
2016-07-24T04:30:44.004Z,50
2016-07-24T04:31:44.029Z,55
2016-07-24T04:32:44.760Z,60
2016-07-24T04:33:44.078Z,60
2016-07-24T04:34:44.110Z,55
2016-07-24T04:35:59.060Z,50
2016-07-24T04:36:44.166Z,50
2016-07-24T04:37:44.189Z,50
2016-07-24T04:38:44.215Z,50
2016-07-24T04:39:59.162Z,50
2016-07-24T04:40:59.195Z,50
2016-07-24T04:41:59.225Z,50
2016-07-24T04:42:44.322Z,55
2016-07-24T04:43:59.281Z,65
2016-07-24T04:44:59.299Z,75
2016-07-24T04:45:44.410Z,80
2016-07-24T04:46:44.431Z,80
2016-07-24T04:47:59.387Z,80
2016-07-24T04:48:44.483Z,80
2016-07-24T04:49:44.514Z,80
2016-07-24T04:50:59.470Z,85
2016-07-24T04:51:59.493Z,85
2016-07-24T04:52:44.599Z,80
2016-07-24T04:53:44.635Z,75
2016-07-24T04:54:44.659Z,80
2016-07-24T04:55:44.675Z,75
2016-07-24T04:56:44.702Z,75
2016-07-24T04:57:44.739Z,70
2016-07-24T04:58:44.767Z,70
2016-07-24T04:59:59.721Z,70
2016-07-24T05:00:44.812Z,70
2016-07-24T05:02:44.873Z,75
2016-07-24T05:03:44.921Z,75
2016-07-24T05:04:44.921Z,75
2016-07-24T05:05:44.960Z,75
2016-07-24T05:06:44.980Z,75
2016-07-24T05:07:45.011Z,85
2016-07-24T05:08:45.045Z,85
2016-07-24T05:09:59.990Z,85
2016-07-24T05:10:45.104Z,85
2016-07-24T05:11:45.124Z,85
2016-07-24T05:13:00.069Z,85
2016-07-24T05:13:45.176Z,85
2016-07-24T05:14:45.204Z,80
2016-07-24T05:16:15.226Z,90
2016-07-24T05:17:00.177Z,90
2016-07-24T05:17:45.290Z,95
2016-07-24T05:18:45.316Z,100
2016-07-24T05:19:45.334Z,105
2016-07-24T05:20:45.361Z,105
2016-07-24T05:21:45.392Z,105
2016-07-24T05:22:45.422Z,100
2016-07-24T05:23:45.453Z,100
2016-07-24T05:25:00.396Z,100
2016-07-24T05:25:45.520Z,105
2016-07-24T05:26:45.530Z,100
2016-07-24T05:28:00.487Z,105
2016-07-24T05:28:45.580Z,105
2016-07-24T05:29:45.628Z,100
2016-07-24T05:32:00.594Z,100
2016-07-24T05:32:45.697Z,105
2016-07-24T05:33:45.721Z,110
2016-07-24T05:34:46.095Z,125
2016-07-24T05:35:45.779Z,130
2016-07-24T05:36:45.804Z,120
2016-07-24T05:37:45.830Z,105
2016-07-24T05:39:00.784Z,100
2016-07-24T05:39:45.893Z,100
2016-07-24T05:41:45.936Z,110
2016-07-24T05:42:45.974Z,120
2016-07-24T05:43:46.004Z,130
2016-07-24T05:44:46.024Z,145
2016-07-24T05:45:46.055Z,175
2016-07-24T05:46:46.075Z,220
2016-07-24T05:48:01.040Z,285
2016-07-24T05:48:46.140Z,290
2016-07-24T05:49:46.160Z,355
2016-07-24T05:51:01.117Z,305
2016-07-24T05:51:46.223Z,380
2016-07-24T05:52:46.249Z,625
2016-07-24T05:53:46.277Z,700
2016-07-24T05:54:46.311Z,685
2016-07-24T05:55:46.338Z,755
2016-07-24T05:56:46.366Z,840
2016-07-24T05:57:46.393Z,870
2016-07-24T05:58:46.418Z,905
2016-07-24T05:59:46.461Z,860
2016-07-24T06:00:46.475Z,850
2016-07-24T06:01:46.517Z,865
2016-07-24T06:02:46.537Z,965
2016-07-24T06:04:01.503Z,895
2016-07-24T06:05:01.534Z,945
2016-07-24T06:07:01.588Z,875
2016-07-24T06:07:46.698Z,870
2016-07-24T06:08:46.727Z,825
2016-07-24T06:09:46.762Z,845
2016-07-24T06:10:46.799Z,885
2016-07-24T06:11:46.840Z,820
2016-07-24T06:12:46.859Z,885
2016-07-24T06:13:46.892Z,940
2016-07-24T06:14:46.916Z,905
2016-07-24T06:16:01.887Z,930
2016-07-24T06:16:46.991Z,890
2016-07-24T06:17:47.034Z,935
2016-07-24T06:19:16.904Z,935
2016-07-24T06:20:02.005Z,890
2016-07-24T06:20:47.118Z,715
2016-07-24T06:21:47.149Z,470
2016-07-24T06:23:47.226Z,330
2016-07-24T06:24:47.244Z,300
2016-07-24T06:26:02.207Z,290
2016-07-24T06:26:47.316Z,280
2016-07-24T06:27:47.351Z,270
2016-07-24T06:28:47.384Z,275
2016-07-24T06:29:47.417Z,305
2016-07-24T06:30:47.450Z,375
2016-07-24T06:31:47.480Z,455
2016-07-24T06:32:47.508Z,535
2016-07-24T06:35:02.548Z,410
2016-07-24T06:36:17.457Z,375
2016-07-24T06:36:47.638Z,440
2016-07-24T06:37:47.669Z,465
2016-07-24T06:38:47.705Z,405
2016-07-24T06:39:47.729Z,580
2016-07-24T06:40:47.778Z,585
2016-07-24T06:41:47.800Z,490
2016-07-24T06:42:47.836Z,530
2016-07-24T06:44:47.893Z,675
2016-07-24T06:45:47.933Z,715
2016-07-24T06:46:48.011Z,705
2016-07-24T06:47:47.997Z,645
2016-07-24T06:49:17.877Z,710
2016-07-24T06:51:03.004Z,620
2016-07-24T06:51:48.138Z,710
2016-07-24T06:53:03.072Z,680
2016-07-24T06:53:48.174Z,665
2016-07-24T06:55:03.136Z,675
2016-07-24T06:55:48.938Z,535
2016-07-24T06:56:48.280Z,535
2016-07-24T06:57:48.327Z,565
2016-07-24T06:58:49.044Z,585
2016-07-24T07:00:03.301Z,595
2016-07-24T07:00:48.414Z,600
2016-07-24T07:01:48.447Z,545
2016-07-24T07:03:03.403Z,475
2016-07-24T07:03:48.512Z,440
2016-07-24T07:04:48.536Z,445
2016-07-24T07:05:48.579Z,440
2016-07-24T07:07:04.225Z,445
2016-07-24T07:07:48.648Z,440
2016-07-24T07:08:48.671Z,440
2016-07-24T07:09:48.700Z,455
2016-07-24T07:10:48.735Z,455
2016-07-24T07:11:48.765Z,475
2016-07-24T07:12:48.803Z,490
2016-07-24T07:13:48.824Z,495
2016-07-24T07:14:48.871Z,495
2016-07-24T07:16:03.833Z,485
2016-07-24T07:16:48.943Z,490
2016-07-24T07:17:48.956Z,505
2016-07-24T07:18:49.695Z,550
2016-07-24T07:19:49.034Z,560
2016-07-24T07:22:04.020Z,725
2016-07-24T07:23:04.049Z,685
2016-07-24T07:25:04.125Z,675
2016-07-24T07:25:49.228Z,680
2016-07-24T07:26:49.255Z,595
2016-07-24T07:27:49.304Z,640
2016-07-24T07:28:49.325Z,625
2016-07-24T07:29:49.364Z,645
2016-07-24T07:30:49.387Z,715
2016-07-24T07:32:04.352Z,685
2016-07-24T07:32:49.458Z,650
2016-07-24T07:35:19.380Z,500
2016-07-24T07:35:49.603Z,540
2016-07-24T07:36:49.594Z,600
2016-07-24T07:37:49.626Z,625
2016-07-24T07:39:04.577Z,645
2016-07-24T07:40:49.722Z,635
2016-07-24T07:41:49.752Z,665
2016-07-24T07:42:49.790Z,665
2016-07-24T07:43:49.818Z,650
2016-07-24T07:44:49.854Z,665
2016-07-24T07:45:49.887Z,555
2016-07-24T07:46:49.919Z,670
2016-07-24T07:47:49.955Z,650
2016-07-24T07:48:49.976Z,620
2016-07-24T07:49:50.025Z,585
2016-07-24T07:50:50.121Z,575
2016-07-24T07:51:50.080Z,580
2016-07-24T07:54:05.083Z,595
2016-07-24T07:54:50.195Z,575
2016-07-24T07:55:50.220Z,560
2016-07-24T07:56:50.252Z,540
2016-07-24T07:57:50.278Z,505
2016-07-24T07:58:50.312Z,480
2016-07-24T07:59:50.353Z,480
2016-07-24T08:01:50.414Z,470
2016-07-24T08:02:50.451Z,460
2016-07-24T08:03:50.479Z,430
2016-07-24T08:04:50.512Z,465
2016-07-24T08:05:50.557Z,460
2016-07-24T08:06:50.593Z,480
2016-07-24T08:08:05.538Z,505
2016-07-24T08:09:05.573Z,505
2016-07-24T08:09:50.687Z,525
2016-07-24T08:10:50.714Z,540
2016-07-24T08:11:50.748Z,560
2016-07-24T08:12:50.782Z,605
2016-07-24T08:13:50.813Z,550
2016-07-24T08:14:50.841Z,530
2016-07-24T08:15:50.883Z,530
2016-07-24T08:17:50.950Z,470
2016-07-24T08:18:50.975Z,430
2016-07-24T08:20:05.949Z,420
2016-07-24T08:21:05.965Z,390
2016-07-24T08:22:06.000Z,380
2016-07-24T08:22:51.109Z,350
2016-07-24T08:23:51.138Z,375
2016-07-24T08:26:06.140Z,430
2016-07-24T08:26:51.248Z,370
2016-07-24T08:28:06.195Z,355
2016-07-24T08:28:51.306Z,335
2016-07-24T08:29:51.339Z,325
2016-07-24T08:30:51.372Z,315
2016-07-24T08:31:51.402Z,305
2016-07-24T08:32:52.130Z,310
2016-07-24T08:34:06.708Z,305
2016-07-24T08:34:51.508Z,310
2016-07-24T08:35:51.534Z,345
2016-07-24T08:36:51.564Z,380
2016-07-24T08:38:06.529Z,365
2016-07-24T08:39:06.567Z,330
2016-07-24T08:39:51.680Z,360
2016-07-24T08:41:06.624Z,370
2016-07-24T08:42:06.671Z,360
2016-07-24T08:42:51.788Z,315
2016-07-24T08:43:51.804Z,300
2016-07-24T08:44:51.834Z,300
2016-07-24T08:45:51.866Z,300
2016-07-24T08:46:51.888Z,315
2016-07-24T08:47:51.932Z,330
2016-07-24T08:48:51.962Z,330
2016-07-24T08:50:06.923Z,340
2016-07-24T08:50:52.036Z,340
2016-07-24T08:51:52.060Z,370
2016-07-24T08:53:07.020Z,355
2016-07-24T08:53:52.134Z,355
2016-07-24T08:55:52.194Z,370
2016-07-24T08:56:52.223Z,390
2016-07-24T08:58:07.179Z,410
2016-07-24T08:59:07.207Z,385
2016-07-24T09:00:07.295Z,390
2016-07-24T09:01:07.276Z,395
2016-07-24T09:02:07.310Z,355
2016-07-24T09:02:52.414Z,360
2016-07-24T09:03:52.451Z,370
2016-07-24T09:04:52.487Z,355
2016-07-24T09:05:52.506Z,395
2016-07-24T09:06:52.548Z,395
2016-07-24T09:07:52.582Z,370
2016-07-24T09:08:52.607Z,340
2016-07-24T09:09:52.658Z,325
2016-07-24T09:10:52.671Z,310
2016-07-24T09:11:52.710Z,300
2016-07-24T09:12:52.739Z,300
2016-07-24T09:14:07.694Z,290
2016-07-24T09:14:52.795Z,290
2016-07-24T09:16:52.868Z,295
2016-07-24T09:18:07.836Z,300
2016-07-24T09:18:52.926Z,305
2016-07-24T09:19:52.962Z,315
2016-07-24T09:20:52.989Z,315
2016-07-24T09:21:53.032Z,315
2016-07-24T09:22:53.071Z,320
2016-07-24T09:23:53.087Z,325
2016-07-24T09:24:53.128Z,325
2016-07-24T09:25:53.165Z,330
2016-07-24T09:27:08.122Z,335
2016-07-24T09:27:53.216Z,335
2016-07-24T09:29:23.108Z,340
2016-07-24T09:30:08.217Z,345
2016-07-24T09:30:53.330Z,350
2016-07-24T09:31:53.350Z,360
2016-07-24T09:32:53.390Z,365
2016-07-24T09:33:53.423Z,380
2016-07-24T09:34:53.446Z,385
2016-07-24T09:35:54.184Z,390
2016-07-24T09:36:53.513Z,380
2016-07-24T09:37:53.548Z,395
2016-07-24T09:38:53.573Z,410
2016-07-24T09:39:53.614Z,395
2016-07-24T09:40:53.642Z,400
2016-07-24T09:42:08.605Z,375
2016-07-24T09:42:53.770Z,415
2016-07-24T09:43:53.743Z,370
2016-07-24T09:44:53.784Z,340
2016-07-24T09:45:53.810Z,335
2016-07-24T09:46:53.844Z,335
2016-07-24T09:47:53.870Z,335
2016-07-24T09:49:53.939Z,335
2016-07-24T09:51:08.897Z,330
2016-07-24T09:51:54.009Z,320
2016-07-24T09:52:54.041Z,315
2016-07-24T09:53:54.075Z,310
2016-07-24T09:54:54.104Z,315
2016-07-24T09:56:54.162Z,310
2016-07-24T09:58:09.125Z,320
2016-07-24T09:58:54.241Z,315
2016-07-24T09:59:54.260Z,330
2016-07-24T10:01:09.221Z,320
2016-07-24T10:02:09.309Z,320
2016-07-24T10:02:54.363Z,320
2016-07-24T10:03:54.403Z,380
2016-07-24T10:05:09.357Z,355
2016-07-24T10:05:54.461Z,345
2016-07-24T10:06:54.501Z,355
2016-07-24T10:07:54.532Z,345
2016-07-24T10:08:54.844Z,340
2016-07-24T10:09:54.600Z,360
2016-07-24T10:10:54.627Z,355
2016-07-24T10:11:54.662Z,340
2016-07-24T10:13:09.623Z,325
2016-07-24T10:13:54.712Z,340
2016-07-24T10:14:54.782Z,340
2016-07-24T10:15:54.788Z,375
2016-07-24T10:17:09.750Z,420
2016-07-24T10:17:54.853Z,405
2016-07-24T10:18:54.906Z,425
2016-07-24T10:19:54.917Z,385
2016-07-24T10:20:54.949Z,360
2016-07-24T10:21:54.988Z,365
2016-07-24T10:22:55.014Z,335
2016-07-24T10:23:55.054Z,355
2016-07-24T10:24:55.076Z,360
2016-07-24T10:25:55.123Z,325
2016-07-24T10:27:55.181Z,330
2016-07-24T10:29:10.142Z,375
2016-07-24T10:29:55.242Z,375
2016-07-24T10:30:55.274Z,320
2016-07-24T10:32:10.234Z,325
2016-07-24T10:33:25.197Z,330
2016-07-24T10:33:55.369Z,345
2016-07-24T10:34:55.415Z,310
2016-07-24T10:35:55.453Z,280
2016-07-24T10:36:55.475Z,255
2016-07-24T10:38:10.438Z,260
2016-07-24T10:38:56.233Z,255
2016-07-24T10:39:55.577Z,305
2016-07-24T10:40:55.604Z,260
2016-07-24T10:41:55.640Z,260
2016-07-24T10:44:10.634Z,300
2016-07-24T10:45:55.781Z,310
2016-07-24T10:47:10.729Z,305
2016-07-24T10:47:55.845Z,305
2016-07-24T10:49:10.796Z,320
2016-07-24T10:49:55.909Z,290
2016-07-24T10:50:55.938Z,345
2016-07-24T10:51:55.970Z,265
2016-07-24T10:52:56.004Z,265
2016-07-24T10:53:56.043Z,300
2016-07-24T10:55:10.994Z,315
2016-07-24T10:55:56.101Z,285
2016-07-24T10:56:56.132Z,270
2016-07-24T10:58:11.106Z,280
2016-07-24T10:58:56.204Z,280
2016-07-24T10:59:56.236Z,275
2016-07-24T11:00:56.261Z,280
2016-07-24T11:01:56.306Z,265
2016-07-24T11:02:56.336Z,280
2016-07-24T11:04:11.288Z,275
2016-07-24T11:05:11.318Z,235
2016-07-24T11:05:56.436Z,245
2016-07-24T11:06:56.468Z,220
2016-07-24T11:07:56.494Z,215
2016-07-24T11:08:56.535Z,240
2016-07-24T11:10:12.185Z,215
2016-07-24T11:10:56.606Z,210
2016-07-24T11:12:11.563Z,205
2016-07-24T11:13:11.586Z,210
2016-07-24T11:13:56.694Z,210
2016-07-24T11:15:11.653Z,290
2016-07-24T11:15:56.757Z,315
2016-07-24T11:17:11.719Z,310
2016-07-24T11:17:56.822Z,300
2016-07-24T11:18:56.865Z,300
2016-07-24T11:19:56.891Z,300
2016-07-24T11:20:56.920Z,295
2016-07-24T11:22:11.875Z,270
2016-07-24T11:22:57.000Z,275
2016-07-24T11:23:57.009Z,295
2016-07-24T11:24:57.057Z,295
2016-07-24T11:25:57.094Z,295
2016-07-24T11:26:57.119Z,285
2016-07-24T11:27:57.149Z,280
2016-07-24T11:31:12.171Z,270
2016-07-24T11:31:57.280Z,290
2016-07-24T11:32:57.319Z,285
2016-07-24T11:33:57.337Z,280
2016-07-24T11:34:57.378Z,275
2016-07-24T11:36:27.262Z,265
2016-07-24T11:37:12.374Z,265
2016-07-24T11:37:57.474Z,260
2016-07-24T11:38:57.524Z,260
2016-07-24T11:39:57.540Z,255
2016-07-24T11:40:57.565Z,220
2016-07-24T11:41:57.604Z,245
2016-07-24T11:42:57.634Z,215
2016-07-24T11:43:57.671Z,185
2016-07-24T11:44:57.699Z,210
2016-07-24T11:46:12.653Z,180
2016-07-24T11:46:57.771Z,175
2016-07-24T11:47:58.489Z,210
2016-07-24T11:49:12.757Z,245
2016-07-24T11:49:57.861Z,250
2016-07-24T11:50:57.893Z,250
2016-07-24T11:52:27.777Z,250
2016-07-24T11:52:58.004Z,245
2016-07-24T11:54:12.912Z,250
2016-07-24T11:54:58.021Z,250
2016-07-24T11:55:58.058Z,240
2016-07-24T11:56:58.083Z,245
2016-07-24T11:57:58.116Z,240
2016-07-24T11:58:58.149Z,245
2016-07-24T12:00:13.116Z,240
2016-07-24T12:00:58.216Z,190
2016-07-24T12:01:58.296Z,195
2016-07-24T12:02:58.281Z,170
2016-07-24T12:03:58.309Z,165
2016-07-24T12:05:13.289Z,160
2016-07-24T12:06:13.301Z,160
2016-07-24T12:06:58.413Z,160
2016-07-24T12:08:13.358Z,160
2016-07-24T12:08:58.478Z,155
2016-07-24T12:09:58.500Z,160
2016-07-24T12:10:58.540Z,165
2016-07-24T12:11:58.570Z,180
2016-07-24T12:12:58.608Z,190
2016-07-24T12:13:58.629Z,230
2016-07-24T12:15:58.697Z,230
2016-07-24T12:16:58.723Z,235
2016-07-24T12:17:58.759Z,230
2016-07-24T12:18:58.792Z,230
2016-07-24T12:20:13.745Z,225
2016-07-24T12:21:13.792Z,170
2016-07-24T12:21:59.584Z,170
2016-07-24T12:23:13.842Z,165
2016-07-24T12:24:13.882Z,165
2016-07-24T12:24:58.996Z,170
2016-07-24T12:25:59.023Z,170
2016-07-24T12:27:28.898Z,175
2016-07-24T12:27:59.088Z,175
2016-07-24T12:28:59.120Z,165
2016-07-24T12:29:59.142Z,160
2016-07-24T12:30:59.180Z,155
2016-07-24T12:31:59.217Z,150
2016-07-24T12:32:59.236Z,155
2016-07-24T12:34:14.202Z,160
2016-07-24T12:34:59.312Z,155
2016-07-24T12:35:59.332Z,155
2016-07-24T12:36:59.378Z,150
2016-07-24T12:37:59.418Z,155
2016-07-24T12:39:29.289Z,190
2016-07-24T12:40:29.321Z,220
2016-07-24T12:40:59.508Z,225
2016-07-24T12:41:59.537Z,175
2016-07-24T12:42:59.564Z,170
2016-07-24T12:43:59.597Z,175
2016-07-24T12:45:59.658Z,240
2016-07-24T12:48:14.658Z,185
2016-07-24T12:48:59.814Z,170
2016-07-24T12:49:59.790Z,175
2016-07-24T12:51:14.747Z,230
2016-07-24T12:51:59.847Z,225
2016-07-24T12:52:59.932Z,225
2016-07-24T12:53:59.920Z,230
2016-07-24T12:54:59.957Z,230
2016-07-24T12:55:59.978Z,230
2016-07-24T12:57:00.019Z,235
2016-07-24T12:58:00.040Z,240
2016-07-24T12:59:00.073Z,240
2016-07-24T13:00:15.038Z,240
2016-07-24T13:01:00.135Z,240
2016-07-24T13:02:15.097Z,235
2016-07-24T13:03:00.207Z,230
2016-07-24T13:05:00.270Z,230
2016-07-24T13:06:00.311Z,230
2016-07-24T13:07:00.334Z,230
2016-07-24T13:08:15.296Z,215
2016-07-24T13:09:00.408Z,165
2016-07-24T13:10:00.431Z,155
2016-07-24T13:11:30.315Z,150
2016-07-24T13:12:00.490Z,150
2016-07-24T13:14:00.560Z,150
2016-07-24T13:15:00.592Z,145
2016-07-24T13:16:00.624Z,145
2016-07-24T13:17:00.655Z,145
2016-07-24T13:18:00.683Z,140
2016-07-24T13:19:00.723Z,135
2016-07-24T13:20:00.760Z,140
2016-07-24T13:21:00.785Z,140
2016-07-24T13:22:00.821Z,150
2016-07-24T13:23:00.852Z,140
2016-07-24T13:24:01.611Z,135
2016-07-24T13:25:15.840Z,135
2016-07-24T13:26:01.019Z,130
2016-07-24T13:27:30.826Z,130
2016-07-24T13:28:01.006Z,130
2016-07-24T13:29:01.048Z,130
2016-07-24T13:30:01.076Z,130
2016-07-24T13:31:01.107Z,135
2016-07-24T13:32:01.142Z,140
2016-07-24T13:33:01.169Z,145
2016-07-24T13:35:01.232Z,145
2016-07-24T13:36:01.251Z,165
2016-07-24T13:37:01.288Z,215
2016-07-24T13:38:16.547Z,215
2016-07-24T13:39:16.285Z,215
2016-07-24T13:40:16.313Z,215
2016-07-24T13:41:01.422Z,220
2016-07-24T13:42:16.384Z,220
2016-07-24T13:43:17.111Z,220
2016-07-24T13:44:01.523Z,215
2016-07-24T13:45:01.559Z,210
2016-07-24T13:46:01.582Z,210
2016-07-24T13:47:01.609Z,205
2016-07-24T13:48:01.646Z,200
2016-07-24T13:49:01.722Z,195
2016-07-24T13:50:01.704Z,180
2016-07-24T13:51:01.738Z,185
2016-07-24T13:52:01.772Z,185
2016-07-24T13:53:01.799Z,155
2016-07-24T13:54:16.754Z,180
2016-07-24T13:55:16.793Z,130
2016-07-24T13:56:16.825Z,130
2016-07-24T13:57:01.930Z,130
2016-07-24T13:58:16.931Z,130
2016-07-24T13:59:16.919Z,150
2016-07-24T14:00:02.030Z,160
2016-07-24T14:01:02.058Z,165
2016-07-24T14:02:02.088Z,145
2016-07-24T14:03:02.123Z,135
2016-07-24T14:04:02.155Z,140
2016-07-24T14:05:17.157Z,150
2016-07-24T14:06:02.216Z,160
2016-07-24T14:07:02.250Z,145
2016-07-24T14:08:03.144Z,145
2016-07-24T14:09:02.309Z,150
2016-07-24T14:10:02.339Z,190
2016-07-24T14:11:02.368Z,190
2016-07-24T14:12:17.333Z,130
2016-07-24T14:13:02.504Z,140
2016-07-24T14:14:17.397Z,135
2016-07-24T14:16:17.476Z,120
2016-07-24T14:17:02.562Z,120
2016-07-24T14:18:02.602Z,120
2016-07-24T14:19:02.630Z,120
2016-07-24T14:20:02.660Z,120
2016-07-24T14:21:02.702Z,115
2016-07-24T14:22:02.727Z,115
2016-07-24T14:23:02.748Z,120
2016-07-24T14:24:02.792Z,120
2016-07-24T14:25:02.824Z,120
2016-07-24T14:26:02.864Z,120
2016-07-24T14:27:17.809Z,120
2016-07-24T14:28:02.918Z,120
2016-07-24T14:29:17.883Z,120
2016-07-24T14:30:17.907Z,120
2016-07-24T14:31:02.998Z,120
2016-07-24T14:32:03.049Z,120
2016-07-24T14:33:03.075Z,120
2016-07-24T14:34:03.094Z,120
2016-07-24T14:35:03.131Z,120
2016-07-24T14:36:03.169Z,125
2016-07-24T14:37:03.196Z,130
2016-07-24T14:38:18.152Z,140
2016-07-24T14:39:03.269Z,135
2016-07-24T14:40:03.292Z,145
2016-07-24T14:41:03.326Z,195
2016-07-24T14:42:03.364Z,190
2016-07-24T14:43:03.395Z,190
2016-07-24T14:44:18.341Z,190
2016-07-24T14:45:03.451Z,190
2016-07-24T14:46:18.418Z,140